sensor_id;sensor_type;location;lat;lon;timestamp;pressure;altitude;pressure_sealevel;temperature;humidity
72444;BME280;60449;52.016;5.414;2022-09-21T08:28:51;102674.19;;;15.05;65.16
72444;BME280;60449;52.016;5.414;2022-09-21T08:29:44;102668.59;;;15.41;63.98
72444;BME280;60449;52.016;5.414;2022-09-21T08:30:35;102671.50;;;15.57;63.83
72444;BME280;60449;52.016;5.414;2022-09-21T08:31:25;102673.47;;;15.69;63.06
72444;BME280;60449;52.016;5.414;2022-09-21T08:32:16;102684.75;;;16.12;62.14
72444;BME280;60449;52.016;5.414;2022-09-21T08:33:07;102674.41;;;16.34;60.32
72444;BME280;60449;52.016;5.414;2022-09-21T08:33:58;102677.25;;;16.51;60.45
72444;BME280;60449;52.016;5.414;2022-09-21T08:34:49;102678.59;;;16.97;59.08
72444;BME280;60449;52.016;5.414;2022-09-21T08:35:40;102684.22;;;17.25;58.24
72444;BME280;60449;52.016;5.414;2022-09-21T08:36:29;102683.22;;;17.13;57.56
72444;BME280;60449;52.016;5.414;2022-09-21T08:37:22;102683.53;;;17.45;57.67
72444;BME280;60449;52.016;5.414;2022-09-21T08:38:11;102685.53;;;17.77;56.97
72444;BME280;60449;52.016;5.414;2022-09-21T08:39:05;102683.97;;;18.13;56.24
72444;BME280;60449;52.016;5.414;2022-09-21T08:39:55;102679.50;;;18.06;55.18
72444;BME280;60449;52.016;5.414;2022-09-21T08:40:45;102682.59;;;17.42;55.85
72444;BME280;60449;52.016;5.414;2022-09-21T08:41:51;102685.63;;;17.95;55.40
72444;BME280;60449;52.016;5.414;2022-09-21T08:43:00;102680.47;;;18.26;53.85
72444;BME280;60449;52.016;5.414;2022-09-21T08:44:03;102680.63;;;18.76;53.01
72444;BME280;60449;52.016;5.414;2022-09-21T08:45:05;102679.84;;;19.15;52.61
72444;BME280;60449;52.016;5.414;2022-09-21T08:45:59;102684.28;;;19.22;52.02
72444;BME280;60449;52.016;5.414;2022-09-21T08:47:02;102681.59;;;19.09;51.69
72444;BME280;60449;52.016;5.414;2022-09-21T08:48:03;102689.56;;;18.83;52.75
72444;BME280;60449;52.016;5.414;2022-09-21T08:49:04;102683.38;;;19.10;52.62
72444;BME280;60449;52.016;5.414;2022-09-21T08:50:02;102682.50;;;19.32;51.65
72444;BME280;60449;52.016;5.414;2022-09-21T08:51:05;102681.56;;;19.61;51.26
72444;BME280;60449;52.016;5.414;2022-09-21T08:52:01;102680.63;;;19.98;51.00
72444;BME280;60449;52.016;5.414;2022-09-21T08:53:01;102685.91;;;20.26;49.37
72444;BME280;60449;52.016;5.414;2022-09-21T08:53:59;102679.81;;;19.24;50.32
72444;BME280;60449;52.016;5.414;2022-09-21T08:55:00;102685.84;;;18.40;51.92
72444;BME280;60449;52.016;5.414;2022-09-21T08:55:55;102679.84;;;19.19;50.76
72444;BME280;60449;52.016;5.414;2022-09-21T08:56:45;102684.00;;;18.24;52.36
72444;BME280;60449;52.016;5.414;2022-09-21T08:57:36;102692.22;;;18.78;53.19
72444;BME280;60449;52.016;5.414;2022-09-21T08:58:27;102685.19;;;19.15;51.47
72444;BME280;60449;52.016;5.414;2022-09-21T08:59:20;102688.66;;;18.84;51.46
72444;BME280;60449;52.016;5.414;2022-09-21T09:00:14;102693.22;;;19.30;51.71
72444;BME280;60449;52.016;5.414;2022-09-21T09:01:22;102692.28;;;19.58;50.47
72444;BME280;60449;52.016;5.414;2022-09-21T09:02:40;102686.06;;;19.21;49.87
72444;BME280;60449;52.016;5.414;2022-09-21T09:03:58;102693.00;;;18.37;51.94
72444;BME280;60449;52.016;5.414;2022-09-21T09:05:16;102688.69;;;18.89;51.52
72444;BME280;60449;52.016;5.414;2022-09-21T09:06:24;102695.84;;;19.63;50.04
72444;BME280;60449;52.016;5.414;2022-09-21T09:07:50;102699.38;;;20.02;48.14
72444;BME280;60449;52.016;5.414;2022-09-21T09:09:18;102691.34;;;19.99;47.38
72444;BME280;60449;52.016;5.414;2022-09-21T09:10:35;102697.53;;;18.67;50.58
72444;BME280;60449;52.016;5.414;2022-09-21T09:11:39;102695.25;;;17.67;52.25
72444;BME280;60449;52.016;5.414;2022-09-21T09:12:55;102687.72;;;18.69;51.92
72444;BME280;60449;52.016;5.414;2022-09-21T09:14:16;102689.63;;;19.19;52.19
72444;BME280;60449;52.016;5.414;2022-09-21T09:15:43;102693.09;;;18.71;50.65
72444;BME280;60449;52.016;5.414;2022-09-21T09:16:53;102698.28;;;18.27;50.71
72444;BME280;60449;52.016;5.414;2022-09-21T09:18:06;102692.25;;;18.92;50.55
72444;BME280;60449;52.016;5.414;2022-09-21T09:19:17;102694.97;;;19.59;49.76
72444;BME280;60449;52.016;5.414;2022-09-21T09:20:17;102699.44;;;19.65;48.00
72444;BME280;60449;52.016;5.414;2022-09-21T09:21:15;102698.53;;;19.36;48.91
72444;BME280;60449;52.016;5.414;2022-09-21T09:22:18;102699.41;;;19.01;49.80
72444;BME280;60449;52.016;5.414;2022-09-21T09:23:21;102700.31;;;19.09;48.45
72444;BME280;60449;52.016;5.414;2022-09-21T09:24:29;102695.81;;;18.94;49.59
72444;BME280;60449;52.016;5.414;2022-09-21T09:25:23;102696.75;;;19.10;48.80
72444;BME280;60449;52.016;5.414;2022-09-21T09:26:19;102702.97;;;19.48;47.45
72444;BME280;60449;52.016;5.414;2022-09-21T09:27:21;102698.56;;;19.35;47.37
72444;BME280;60449;52.016;5.414;2022-09-21T09:28:25;102703.00;;;19.72;47.17
72444;BME280;60449;52.016;5.414;2022-09-21T09:29:28;102698.41;;;20.23;46.01
72444;BME280;60449;52.016;5.414;2022-09-21T09:30:33;102695.88;;;19.53;47.63
72444;BME280;60449;52.016;5.414;2022-09-21T09:31:29;102700.25;;;20.06;45.46
72444;BME280;60449;52.016;5.414;2022-09-21T09:32:29;102700.13;;;20.38;44.12
72444;BME280;60449;52.016;5.414;2022-09-21T09:33:29;102695.69;;;20.30;45.20
72444;BME280;60449;52.016;5.414;2022-09-21T09:34:34;102697.41;;;20.49;45.15
72444;BME280;60449;52.016;5.414;2022-09-21T09:35:33;102700.28;;;19.81;45.51
72444;BME280;60449;52.016;5.414;2022-09-21T09:36:35;102692.19;;;20.15;44.77
72444;BME280;60449;52.016;5.414;2022-09-21T09:37:39;102699.25;;;20.33;46.60
72444;BME280;60449;52.016;5.414;2022-09-21T09:38:39;102693.03;;;20.28;45.79
72444;BME280;60449;52.016;5.414;2022-09-21T09:39:35;102683.31;;;19.90;47.46
72444;BME280;60449;52.016;5.414;2022-09-21T09:42:37;102692.19;;;18.64;49.05
72444;BME280;60449;52.016;5.414;2022-09-21T09:43:43;102688.59;;;18.58;50.28
72444;BME280;60449;52.016;5.414;2022-09-21T09:45:04;102692.94;;;18.27;50.33
72444;BME280;60449;52.016;5.414;2022-09-21T09:46:19;102686.69;;;18.21;50.35
72444;BME280;60449;52.016;5.414;2022-09-21T09:47:40;102694.66;;;18.16;52.63
72444;BME280;60449;52.016;5.414;2022-09-21T09:49:06;102686.88;;;18.85;49.24
72444;BME280;60449;52.016;5.414;2022-09-21T09:50:11;102688.75;;;19.26;47.60
72444;BME280;60449;52.016;5.414;2022-09-21T09:51:15;102686.06;;;19.46;48.64
72444;BME280;60449;52.016;5.414;2022-09-21T09:52:12;102685.16;;;19.21;49.34
72444;BME280;60449;52.016;5.414;2022-09-21T09:53:16;102688.72;;;19.04;49.88
72444;BME280;60449;52.016;5.414;2022-09-21T09:54:14;102693.25;;;17.38;51.13
72444;BME280;60449;52.016;5.414;2022-09-21T09:55:24;102697.84;;;17.58;52.00
72444;BME280;60449;52.016;5.414;2022-09-21T09:56:25;102698.81;;;17.74;50.44
72444;BME280;60449;52.016;5.414;2022-09-21T09:57:25;102688.56;;;18.42;49.11
72444;BME280;60449;52.016;5.414;2022-09-21T09:58:37;102684.22;;;18.91;47.55
72444;BME280;60449;52.016;5.414;2022-09-21T09:59:41;102692.22;;;18.83;49.81
72444;BME280;60449;52.016;5.414;2022-09-21T10:00:38;102687.75;;;18.77;47.91
72444;BME280;60449;52.016;5.414;2022-09-21T10:01:40;102685.00;;;18.43;48.83
72444;BME280;60449;52.016;5.414;2022-09-21T10:02:31;102688.59;;;18.64;47.31
72444;BME280;60449;52.016;5.414;2022-09-21T10:03:27;102691.38;;;19.00;45.38
72444;BME280;60449;52.016;5.414;2022-09-21T10:04:32;102687.84;;;19.52;47.70
72444;BME280;60449;52.016;5.414;2022-09-21T10:05:31;102681.56;;;19.75;47.05
72444;BME280;60449;52.016;5.414;2022-09-21T10:06:31;102678.78;;;20.21;46.75
72444;BME280;60449;52.016;5.414;2022-09-21T10:07:36;102683.31;;;19.85;46.04
72444;BME280;60449;52.016;5.414;2022-09-21T10:08:41;102690.53;;;19.29;48.25
72444;BME280;60449;52.016;5.414;2022-09-21T10:09:33;102688.66;;;19.90;47.36
72444;BME280;60449;52.016;5.414;2022-09-21T10:10:34;102683.31;;;19.91;46.18
72444;BME280;60449;52.016;5.414;2022-09-21T10:11:36;102687.84;;;19.43;46.86
72444;BME280;60449;52.016;5.414;2022-09-21T10:12:31;102685.16;;;19.32;46.93
72444;BME280;60449;52.016;5.414;2022-09-21T10:13:29;102690.53;;;19.33;47.60
72444;BME280;60449;52.016;5.414;2022-09-21T10:14:23;102677.13;;;19.55;46.29
72444;BME280;60449;52.016;5.414;2022-09-21T10:15:19;102678.81;;;18.53;47.44
72444;BME280;60449;52.016;5.414;2022-09-21T10:16:19;102679.78;;;18.96;47.38
72444;BME280;60449;52.016;5.414;2022-09-21T10:19:01;102681.50;;;20.10;45.92
72444;BME280;60449;52.016;5.414;2022-09-21T10:19:58;102681.41;;;20.31;45.86
72444;BME280;60449;52.016;5.414;2022-09-21T10:21:00;102676.22;;;19.65;48.52
72444;BME280;60449;52.016;5.414;2022-09-21T10:21:55;102676.22;;;19.61;48.21
72444;BME280;60449;52.016;5.414;2022-09-21T10:22:53;102675.34;;;18.98;48.66
72444;BME280;60449;52.016;5.414;2022-09-21T10:23:47;102685.94;;;18.51;50.03
72444;BME280;60449;52.016;5.414;2022-09-21T10:24:47;102677.09;;;18.83;49.89
72444;BME280;60449;52.016;5.414;2022-09-21T10:25:57;102677.16;;;19.38;47.01
72444;BME280;60449;52.016;5.414;2022-09-21T10:27:05;102679.81;;;19.05;48.20
72444;BME280;60449;52.016;5.414;2022-09-21T10:28:03;102681.59;;;19.14;46.25
72444;BME280;60449;52.016;5.414;2022-09-21T10:28:55;102679.81;;;19.66;46.99
72444;BME280;60449;52.016;5.414;2022-09-21T10:29:48;102681.47;;;20.17;45.05
72444;BME280;60449;52.016;5.414;2022-09-21T10:30:39;102678.88;;;20.03;47.14
72444;BME280;60449;52.016;5.414;2022-09-21T10:33:20;102678.84;;;19.90;46.37
72444;BME280;60449;52.016;5.414;2022-09-21T10:34:13;102683.25;;;20.19;45.40
72444;BME280;60449;52.016;5.414;2022-09-21T10:35:16;102673.44;;;20.21;45.60
72444;BME280;60449;52.016;5.414;2022-09-21T10:36:24;102673.59;;;19.19;45.81
72444;BME280;60449;52.016;5.414;2022-09-21T10:37:25;102677.16;;;19.33;47.14
72444;BME280;60449;52.016;5.414;2022-09-21T10:38:19;102674.44;;;19.60;47.74
72444;BME280;60449;52.016;5.414;2022-09-21T10:39:22;102675.34;;;19.54;45.58
72444;BME280;60449;52.016;5.414;2022-09-21T10:40:23;102672.34;;;20.58;44.38
72444;BME280;60449;52.016;5.414;2022-09-21T10:41:25;102666.91;;;20.74;42.87
72444;BME280;60449;52.016;5.414;2022-09-21T10:42:18;102670.63;;;20.48;43.35
72444;BME280;60449;52.016;5.414;2022-09-21T10:43:24;102668.22;;;19.59;46.09
72444;BME280;60449;52.016;5.414;2022-09-21T10:44:51;102675.22;;;20.16;46.44
72444;BME280;60449;52.016;5.414;2022-09-21T10:45:55;102669.13;;;19.36;45.80
72444;BME280;60449;52.016;5.414;2022-09-21T10:46:48;102666.47;;;19.43;46.67
72444;BME280;60449;52.016;5.414;2022-09-21T10:47:47;102664.66;;;19.57;44.59
72444;BME280;60449;52.016;5.414;2022-09-21T10:48:44;102681.53;;;20.00;45.82
72444;BME280;60449;52.016;5.414;2022-09-21T10:49:36;102660.22;;;19.36;44.80
72444;BME280;60449;52.016;5.414;2022-09-21T10:50:36;102659.31;;;19.12;45.14
72444;BME280;60449;52.016;5.414;2022-09-21T10:51:30;102676.13;;;18.53;46.66
72444;BME280;60449;52.016;5.414;2022-09-21T10:52:24;102665.44;;;18.63;46.49
72444;BME280;60449;52.016;5.414;2022-09-21T10:53:26;102660.00;;;18.29;46.98
72444;BME280;60449;52.016;5.414;2022-09-21T10:54:23;102659.28;;;18.86;48.73
72444;BME280;60449;52.016;5.414;2022-09-21T10:55:21;102661.94;;;19.74;44.02
72444;BME280;60449;52.016;5.414;2022-09-21T10:56:16;102666.31;;;20.14;43.46
72444;BME280;60449;52.016;5.414;2022-09-21T10:57:15;102657.84;;;20.95;42.76
72444;BME280;60449;52.016;5.414;2022-09-21T10:58:08;102666.59;;;21.19;42.41
72444;BME280;60449;52.016;5.414;2022-09-21T10:59:18;102674.38;;;21.45;42.87
72444;BME280;60449;52.016;5.414;2022-09-21T11:00:26;102659.00;;;22.41;39.83
72444;BME280;60449;52.016;5.414;2022-09-21T11:01:27;102661.19;;;22.11;40.04
72444;BME280;60449;52.016;5.414;2022-09-21T11:02:34;102657.91;;;21.87;41.27
72444;BME280;60449;52.016;5.414;2022-09-21T11:03:46;102656.63;;;22.18;41.13
72444;BME280;60449;52.016;5.414;2022-09-21T11:04:49;102656.63;;;22.84;37.59
72444;BME280;60449;52.016;5.414;2022-09-21T11:05:44;102652.94;;;22.91;38.87
72444;BME280;60449;52.016;5.414;2022-09-21T11:06:42;102652.47;;;23.19;35.84
72444;BME280;60449;52.016;5.414;2022-09-21T11:07:45;102661.81;;;21.54;39.31
72444;BME280;60449;52.016;5.414;2022-09-21T11:08:44;102657.94;;;20.76;39.79
72444;BME280;60449;52.016;5.414;2022-09-21T11:09:46;102659.22;;;19.98;43.41
72444;BME280;60449;52.016;5.414;2022-09-21T11:10:48;102660.13;;;19.92;43.94
72444;BME280;60449;52.016;5.414;2022-09-21T11:11:49;102658.34;;;19.75;43.03
72444;BME280;60449;52.016;5.414;2022-09-21T11:13:04;102658.38;;;19.69;43.09
72444;BME280;60449;52.016;5.414;2022-09-21T11:14:11;102661.09;;;19.58;42.48
72444;BME280;60449;52.016;5.414;2022-09-21T11:15:17;102667.31;;;19.56;46.99
72444;BME280;60449;52.016;5.414;2022-09-21T11:16:27;102664.63;;;19.80;46.71
72444;BME280;60449;52.016;5.414;2022-09-21T11:17:35;102659.75;;;20.70;44.29
72444;BME280;60449;52.016;5.414;2022-09-21T11:18:42;102654.94;;;21.20;43.76
72444;BME280;60449;52.016;5.414;2022-09-21T11:19:47;102656.97;;;20.90;46.52
72444;BME280;60449;52.016;5.414;2022-09-21T11:20:48;102653.56;;;20.60;46.22
72444;BME280;60449;52.016;5.414;2022-09-21T11:21:51;102657.41;;;20.07;47.06
72444;BME280;60449;52.016;5.414;2022-09-21T11:22:53;102651.22;;;19.80;47.75
72444;BME280;60449;52.016;5.414;2022-09-21T11:24:01;102656.53;;;20.07;47.60
72444;BME280;60449;52.016;5.414;2022-09-21T11:25:22;102650.38;;;18.96;48.28
72444;BME280;60449;52.016;5.414;2022-09-21T11:26:26;102654.88;;;19.06;47.10
72444;BME280;60449;52.016;5.414;2022-09-21T11:27:24;102649.41;;;18.50;48.89
72444;BME280;60449;52.016;5.414;2022-09-21T11:28:25;102645.91;;;18.95;49.50
72444;BME280;60449;52.016;5.414;2022-09-21T11:29:26;102648.59;;;19.60;48.98
72444;BME280;60449;52.016;5.414;2022-09-21T11:30:23;102647.59;;;19.91;46.38
72444;BME280;60449;52.016;5.414;2022-09-21T11:31:40;102653.84;;;20.07;47.18
72444;BME280;60449;52.016;5.414;2022-09-21T11:33:02;102641.13;;;20.51;42.70
72444;BME280;60449;52.016;5.414;2022-09-21T11:34:37;102645.31;;;20.97;41.70
72444;BME280;60449;52.016;5.414;2022-09-21T11:35:55;102645.47;;;21.77;40.18
72444;BME280;60449;52.016;5.414;2022-09-21T11:37:03;102643.66;;;22.54;38.68
72444;BME280;60449;52.016;5.414;2022-09-21T11:38:04;102643.44;;;21.98;37.93
72444;BME280;60449;52.016;5.414;2022-09-21T11:39:11;102642.41;;;21.25;38.87
72444;BME280;60449;52.016;5.414;2022-09-21T11:40:31;102634.56;;;21.91;37.54
72444;BME280;60449;52.016;5.414;2022-09-21T11:41:48;102633.75;;;21.87;36.96
72444;BME280;60449;52.016;5.414;2022-09-21T11:42:59;102637.19;;;21.08;38.64
72444;BME280;60449;52.016;5.414;2022-09-21T11:44:27;102635.56;;;20.87;38.87
72444;BME280;60449;52.016;5.414;2022-09-21T11:45:48;102638.78;;;21.31;38.00
72444;BME280;60449;52.016;5.414;2022-09-21T11:46:56;102633.88;;;21.76;38.86
72444;BME280;60449;52.016;5.414;2022-09-21T11:48:10;102629.75;;;22.19;37.70
72444;BME280;60449;52.016;5.414;2022-09-21T11:49:38;102638.34;;;21.76;37.46
72444;BME280;60449;52.016;5.414;2022-09-21T11:50:49;102627.97;;;22.18;38.04
72444;BME280;60449;52.016;5.414;2022-09-21T11:52:04;102638.97;;;21.98;37.00
72444;BME280;60449;52.016;5.414;2022-09-21T11:53:59;102632.44;;;22.19;36.80
72444;BME280;60449;52.016;5.414;2022-09-21T11:55:35;102632.78;;;22.59;35.75
72444;BME280;60449;52.016;5.414;2022-09-21T11:56:49;102630.91;;;22.66;34.27
72444;BME280;60449;52.016;5.414;2022-09-21T11:57:53;102631.38;;;22.94;35.52
72444;BME280;60449;52.016;5.414;2022-09-21T11:59:00;102633.59;;;21.98;36.56
72444;BME280;60449;52.016;5.414;2022-09-21T12:00:10;102621.47;;;22.35;35.48
72444;BME280;60449;52.016;5.414;2022-09-21T12:01:15;102627.75;;;22.34;35.88
72444;BME280;60449;52.016;5.414;2022-09-21T12:02:31;102621.53;;;22.91;34.37
72444;BME280;60449;52.016;5.414;2022-09-21T12:03:57;102630.91;;;23.22;36.32
72444;BME280;60449;52.016;5.414;2022-09-21T12:05:12;102620.22;;;23.68;34.43
72444;BME280;60449;52.016;5.414;2022-09-21T12:06:20;102619.91;;;23.34;34.39
72444;BME280;60449;52.016;5.414;2022-09-21T12:09:49;102619.03;;;22.81;36.60
72444;BME280;60449;52.016;5.414;2022-09-21T12:11:05;102610.00;;;23.38;34.88
72444;BME280;60449;52.016;5.414;2022-09-21T12:12:12;102615.38;;;23.38;33.67
72444;BME280;60449;52.016;5.414;2022-09-21T12:13:25;102620.41;;;22.47;35.72
72444;BME280;60449;52.016;5.414;2022-09-21T12:14:29;102619.97;;;22.15;35.18
72444;BME280;60449;52.016;5.414;2022-09-21T12:15:32;102619.59;;;22.40;35.14
72444;BME280;60449;52.016;5.414;2022-09-21T12:16:37;102607.84;;;22.52;35.11
72444;BME280;60449;52.016;5.414;2022-09-21T12:17:46;102612.34;;;23.06;33.11
72444;BME280;60449;52.016;5.414;2022-09-21T12:18:56;102609.06;;;23.41;32.93
72444;BME280;60449;52.016;5.414;2022-09-21T12:20:02;102611.28;;;24.10;33.55
72444;BME280;60449;52.016;5.414;2022-09-21T12:21:11;102614.31;;;22.95;33.33
72444;BME280;60449;52.016;5.414;2022-09-21T12:22:10;102612.81;;;23.30;32.15
72444;BME280;60449;52.016;5.414;2022-09-21T12:23:09;102618.63;;;23.05;32.15
72444;BME280;60449;52.016;5.414;2022-09-21T12:24:14;102609.72;;;23.00;32.95
72444;BME280;60449;52.016;5.414;2022-09-21T12:25:25;102617.13;;;21.48;34.75
72444;BME280;60449;52.016;5.414;2022-09-21T12:26:25;102617.84;;;21.65;36.63
72444;BME280;60449;52.016;5.414;2022-09-21T12:27:25;102614.47;;;21.46;37.61
72444;BME280;60449;52.016;5.414;2022-09-21T12:28:26;102614.22;;;20.68;38.46
72444;BME280;60449;52.016;5.414;2022-09-21T12:29:24;102619.03;;;20.10;38.90
72444;BME280;60449;52.016;5.414;2022-09-21T12:30:22;102609.09;;;20.29;39.87
72444;BME280;60449;52.016;5.414;2022-09-21T12:31:20;102607.38;;;20.14;43.80
72444;BME280;60449;52.016;5.414;2022-09-21T12:32:22;102611.03;;;19.85;42.85
72444;BME280;60449;52.016;5.414;2022-09-21T12:33:34;102611.09;;;19.70;42.75
72444;BME280;60449;52.016;5.414;2022-09-21T12:34:38;102606.63;;;19.68;40.74
72444;BME280;60449;52.016;5.414;2022-09-21T12:35:39;102608.47;;;19.51;42.20
72444;BME280;60449;52.016;5.414;2022-09-21T12:36:39;102602.25;;;19.49;41.00
72444;BME280;60449;52.016;5.414;2022-09-21T12:37:39;102601.38;;;18.85;43.64
72444;BME280;60449;52.016;5.414;2022-09-21T12:38:42;102604.03;;;18.80;46.05
72444;BME280;60449;52.016;5.414;2022-09-21T12:39:53;102600.50;;;19.28;42.78
72444;BME280;60449;52.016;5.414;2022-09-21T12:40:55;102604.00;;;19.62;39.58
72444;BME280;60449;52.016;5.414;2022-09-21T12:42:00;102593.38;;;19.28;38.37
72444;BME280;60449;52.016;5.414;2022-09-21T12:43:06;102594.22;;;19.39;38.53
72444;BME280;60449;52.016;5.414;2022-09-21T12:44:14;102595.16;;;19.12;46.13
72444;BME280;60449;52.016;5.414;2022-09-21T12:45:18;102596.94;;;19.10;46.91
72444;BME280;60449;52.016;5.414;2022-09-21T12:46:19;102596.03;;;19.19;47.43
72444;BME280;60449;52.016;5.414;2022-09-21T12:47:15;102602.25;;;19.46;44.44
72444;BME280;60449;52.016;5.414;2022-09-21T12:48:21;102595.88;;;19.96;41.69
72444;BME280;60449;52.016;5.414;2022-09-21T12:49:23;102588.66;;;20.11;40.24
72444;BME280;60449;52.016;5.414;2022-09-21T12:50:25;102594.88;;;20.16;44.08
72444;BME280;60449;52.016;5.414;2022-09-21T12:51:26;102596.72;;;20.06;40.72
72444;BME280;60449;52.016;5.414;2022-09-21T12:52:23;102595.88;;;19.90;40.67
72444;BME280;60449;52.016;5.414;2022-09-21T12:53:21;102593.84;;;20.42;40.82
72444;BME280;60449;52.016;5.414;2022-09-21T12:54:23;102594.19;;;21.16;37.86
72444;BME280;60449;52.016;5.414;2022-09-21T12:55:39;102590.91;;;21.75;36.87
72444;BME280;60449;52.016;5.414;2022-09-21T12:56:41;102587.81;;;21.28;34.60
72444;BME280;60449;52.016;5.414;2022-09-21T12:57:48;102586.22;;;21.06;34.45
72444;BME280;60449;52.016;5.414;2022-09-21T12:59:00;102581.38;;;21.46;34.71
72444;BME280;60449;52.016;5.414;2022-09-21T13:00:13;102581.13;;;21.71;36.35
72444;BME280;60449;52.016;5.414;2022-09-21T13:01:19;102580.59;;;22.13;37.22
72444;BME280;60449;52.016;5.414;2022-09-21T13:02:23;102576.50;;;21.84;36.20
72444;BME280;60449;52.016;5.414;2022-09-21T13:03:29;102577.59;;;21.65;37.22
72444;BME280;60449;52.016;5.414;2022-09-21T13:04:37;102581.16;;;21.68;37.14
72444;BME280;60449;52.016;5.414;2022-09-21T13:05:49;102572.19;;;22.94;35.99
72444;BME280;60449;52.016;5.414;2022-09-21T13:07:27;102572.84;;;23.57;33.76
72444;BME280;60449;52.016;5.414;2022-09-21T13:08:40;102568.28;;;21.94;35.10
72444;BME280;60449;52.016;5.414;2022-09-21T13:09:37;102571.06;;;21.88;35.73
72444;BME280;60449;52.016;5.414;2022-09-21T13:10:41;102565.97;;;22.32;35.63
72444;BME280;60449;52.016;5.414;2022-09-21T13:11:50;102575.63;;;23.02;32.87
72444;BME280;60449;52.016;5.414;2022-09-21T13:12:50;102577.84;;;23.30;32.67
72444;BME280;60449;52.016;5.414;2022-09-21T13:13:48;102568.63;;;23.44;33.66
72444;BME280;60449;52.016;5.414;2022-09-21T13:14:45;102575.09;;;23.33;33.12
72444;BME280;60449;52.016;5.414;2022-09-21T13:15:44;102570.59;;;23.78;32.50
72444;BME280;60449;52.016;5.414;2022-09-21T13:16:38;102576.44;;;21.88;36.12
72444;BME280;60449;52.016;5.414;2022-09-21T13:17:30;102569.69;;;21.51;35.25
72444;BME280;60449;52.016;5.414;2022-09-21T13:18:26;102576.69;;;21.63;36.04
72444;BME280;60449;52.016;5.414;2022-09-21T13:19:22;102573.91;;;22.42;34.19
72444;BME280;60449;52.016;5.414;2022-09-21T13:20:18;102565.34;;;22.13;34.40
72444;BME280;60449;52.016;5.414;2022-09-21T13:21:18;102579.19;;;22.49;34.66
72444;BME280;60449;52.016;5.414;2022-09-21T13:22:12;102579.53;;;23.36;32.61
72444;BME280;60449;52.016;5.414;2022-09-21T13:23:16;102570.41;;;23.87;31.66
72444;BME280;60449;52.016;5.414;2022-09-21T13:24:25;102572.47;;;22.78;33.89
72444;BME280;60449;52.016;5.414;2022-09-21T13:25:20;102568.09;;;23.23;32.40
72444;BME280;60449;52.016;5.414;2022-09-21T13:26:30;102571.69;;;22.72;32.94
72444;BME280;60449;52.016;5.414;2022-09-21T13:27:59;102567.00;;;23.33;31.83
72444;BME280;60449;52.016;5.414;2022-09-21T13:29:02;102573.50;;;24.13;29.98
72444;BME280;60449;52.016;5.414;2022-09-21T13:30:27;102569.03;;;24.10;31.32
72444;BME280;60449;52.016;5.414;2022-09-21T13:31:40;102573.78;;;23.04;33.88
72444;BME280;60449;52.016;5.414;2022-09-21T13:32:50;102561.84;;;22.08;35.29
72444;BME280;60449;52.016;5.414;2022-09-21T13:33:40;102561.44;;;22.36;33.85
72444;BME280;60449;52.016;5.414;2022-09-21T13:35:47;102563.34;;;22.87;32.20
72444;BME280;60449;52.016;5.414;2022-09-21T13:36:42;102555.06;;;22.98;32.48
72444;BME280;60449;52.016;5.414;2022-09-21T13:37:33;102559.41;;;22.55;33.42
72444;BME280;60449;52.016;5.414;2022-09-21T13:38:25;102561.84;;;23.21;32.75
72444;BME280;60449;52.016;5.414;2022-09-21T13:39:18;102561.44;;;22.38;33.89
72444;BME280;60449;52.016;5.414;2022-09-21T13:40:36;102556.47;;;22.10;33.59
72444;BME280;60449;52.016;5.414;2022-09-21T13:41:26;102560.47;;;21.77;33.26
72444;BME280;60449;52.016;5.414;2022-09-21T13:42:44;102550.75;;;21.65;34.21
72444;BME280;60449;52.016;5.414;2022-09-21T13:44:00;102561.69;;;21.45;35.22
72444;BME280;60449;52.016;5.414;2022-09-21T13:44:53;102558.75;;;20.79;37.94
72444;BME280;60449;52.016;5.414;2022-09-21T13:45:51;102562.19;;;20.97;35.90
72444;BME280;60449;52.016;5.414;2022-09-21T13:46:48;102557.84;;;20.85;34.55
72444;BME280;60449;52.016;5.414;2022-09-21T13:47:42;102558.13;;;20.45;36.43
72444;BME280;60449;52.016;5.414;2022-09-21T13:48:35;102560.69;;;20.59;35.51
72444;BME280;60449;52.016;5.414;2022-09-21T13:50:43;102553.59;;;20.51;38.42
72444;BME280;60449;52.016;5.414;2022-09-21T13:51:34;102561.97;;;19.97;38.91
72444;BME280;60449;52.016;5.414;2022-09-21T13:52:37;102560.16;;;20.02;38.68
72444;BME280;60449;52.016;5.414;2022-09-21T13:53:37;102548.53;;;21.23;35.06
72444;BME280;60449;52.016;5.414;2022-09-21T13:54:32;102542.47;;;21.03;35.56
72444;BME280;60449;52.016;5.414;2022-09-21T13:55:29;102542.69;;;21.67;33.72
72444;BME280;60449;52.016;5.414;2022-09-21T13:56:24;102552.63;;;21.56;34.58
72444;BME280;60449;52.016;5.414;2022-09-21T13:57:22;102547.56;;;21.29;35.01
72444;BME280;60449;52.016;5.414;2022-09-21T13:58:20;102549.94;;;21.57;35.26
72444;BME280;60449;52.016;5.414;2022-09-21T13:59:22;102546.38;;;20.63;36.07
72444;BME280;60449;52.016;5.414;2022-09-21T14:00:36;102543.16;;;21.25;34.65
72444;BME280;60449;52.016;5.414;2022-09-21T14:01:33;102546.44;;;21.50;33.94
72444;BME280;60449;52.016;5.414;2022-09-21T14:02:30;102547.16;;;21.68;35.21
72444;BME280;60449;52.016;5.414;2022-09-21T14:03:24;102542.91;;;21.48;35.70
72444;BME280;60449;52.016;5.414;2022-09-21T14:04:26;102548.63;;;21.92;34.83
72444;BME280;60449;52.016;5.414;2022-09-21T14:05:33;102548.88;;;22.36;32.38
72444;BME280;60449;52.016;5.414;2022-09-21T14:06:32;102549.75;;;22.95;32.05
72444;BME280;60449;52.016;5.414;2022-09-21T14:07:29;102545.06;;;23.55;30.90
72444;BME280;60449;52.016;5.414;2022-09-21T14:08:26;102541.84;;;23.36;30.75
72444;BME280;60449;52.016;5.414;2022-09-21T14:09:23;102538.72;;;23.11;31.92
72444;BME280;60449;52.016;5.414;2022-09-21T14:10:19;102543.09;;;22.05;31.69